Time;durP1;ratioP1;P1;durP2;ratioP2;P2;SDS_P1;SDS_P2;PMS_P1;PMS_P2;Temp;Humidity;BMP_temperature;BMP_pressure;BME280_temperature;BME280_humidity;BME280_pressure;Samples;Min_cycle;Max_cycle;Signal;HPM_P1;HPM_P2
2021/11/24 07:48:45;;;;;;;41.20;16.75;;;;;;;-0.19;100.00;97624.97;2103286;28;20378;-76
2021/11/24 07:49:46;;;;;;;23.80;10.70;;;;;;;0.62;100.00;97621.38;2097035;28;20115;-80
2021/11/24 07:50:46;;;;;;;20.87;10.23;;;;;;;0.94;100.00;97621.38;2088774;28;20033;-80
2021/11/24 07:51:46;;;;;;;24.37;10.97;;;;;;;1.31;100.00;97618.75;2104887;28;20020;-80
2021/11/24 07:52:47;;;;;;;24.83;11.13;;;;;;;1.51;98.09;97618.06;2105467;28;20020;-81
2021/11/24 07:53:47;;;;;;;23.90;10.75;;;;;;;1.11;94.09;97616.75;2097043;28;20024;-80
2021/11/24 07:54:47;;;;;;;23.20;10.53;;;;;;;0.95;92.16;97617.66;2096816;28;20055;-80
2021/11/24 07:55:48;;;;;;;23.17;10.87;;;;;;;1.22;90.25;97614.13;2105820;28;20049;-80
2021/11/24 07:56:48;;;;;;;23.73;11.30;;;;;;;1.16;88.72;97621.28;2105464;28;20024;-80
2021/11/24 07:57:48;;;;;;;25.63;11.73;;;;;;;1.02;87.69;97612.13;2105192;28;20081;-80
2021/11/24 07:58:49;;;;;;;25.38;11.73;;;;;;;0.90;87.59;97614.97;2096654;28;20108;-78
2021/11/24 07:59:49;;;;;;;25.10;11.87;;;;;;;0.79;87.80;97614.06;2088354;28;20502;-78
2021/11/24 08:00:50;;;;;;;23.00;10.60;;;;;;;0.93;87.82;97625.09;2088602;28;20028;-78
2021/11/24 08:01:50;;;;;;;23.73;10.40;;;;;;;0.97;87.40;97620.91;2096597;28;20021;-78
2021/11/24 08:02:51;;;;;;;20.25;10.32;;;;;;;1.02;87.60;97614.78;2104819;28;20055;-78
2021/11/24 08:03:51;;;;;;;20.43;10.13;;;;;;;1.13;87.15;97622.63;2096493;28;20420;-78
2021/11/24 08:04:52;;;;;;;22.60;11.17;;;;;;;1.06;87.37;97614.03;2096963;28;20036;-78
2021/11/24 08:05:52;;;;;;;22.25;10.52;;;;;;;1.10;87.17;97620.47;2088459;28;20088;-78
2021/11/24 08:06:52;;;;;;;21.73;10.60;;;;;;;0.78;87.55;97609.00;2080643;28;20099;-79
2021/11/24 08:07:53;;;;;;;20.90;10.53;;;;;;;1.07;87.76;97620.16;2088481;28;20017;-80
2021/11/24 08:08:54;;;;;;;20.45;10.20;;;;;;;0.91;88.44;97613.91;2088617;28;20493;-81
2021/11/24 08:09:54;;;;;;;20.90;10.60;;;;;;;1.23;88.43;97610.41;2096841;28;20035;-81
2021/11/24 08:10:54;;;;;;;23.23;11.27;;;;;;;1.35;87.43;97606.50;2096703;28;20053;-80
2021/11/24 08:11:56;;;;;;;22.08;10.73;;;;;;;1.16;87.27;97611.44;2088275;28;20445;-80
2021/11/24 08:12:56;;;;;;;21.43;10.20;;;;;;;1.03;87.64;97614.53;2097184;28;20039;-80
2021/11/24 08:13:56;;;;;;;19.38;10.50;;;;;;;1.17;87.78;97620.25;2097355;28;20342;-78
2021/11/24 08:14:57;;;;;;;22.23;10.80;;;;;;;1.18;87.54;97612.00;2096759;28;20040;-79
2021/11/24 08:15:57;;;;;;;22.30;10.47;;;;;;;1.20;87.81;97618.94;2096482;28;20029;-82
2021/11/24 08:16:57;;;;;;;21.13;10.43;;;;;;;1.25;87.78;97611.78;2097272;28;20098;-81
2021/11/24 08:17:58;;;;;;;20.60;10.52;;;;;;;1.33;87.79;97608.63;2096947;28;20036;-80
2021/11/24 08:18:58;;;;;;;21.15;11.00;;;;;;;1.29;87.72;97609.38;2097124;28;20488;-79
2021/11/24 08:19:59;;;;;;;20.47;10.57;;;;;;;1.47;87.50;97606.31;2096430;28;20054;-80
2021/11/24 08:21:00;;;;;;;20.45;10.77;;;;;;;1.41;87.51;97607.34;2088025;28;20030;-80
2021/11/24 08:22:00;;;;;;;20.90;10.60;;;;;;;1.41;87.87;97607.34;2088083;28;20029;-81
2021/11/24 08:23:00;;;;;;;20.43;10.70;;;;;;;1.29;87.44;97607.53;2088093;28;20513;-80
2021/11/24 08:24:01;;;;;;;21.93;10.50;;;;;;;0.88;88.36;97600.28;2087934;28;20563;-82
2021/11/24 08:25:02;;;;;;;20.05;10.40;;;;;;;0.89;89.50;97604.56;2096340;28;20484;-81
2021/11/24 08:26:03;;;;;;;18.57;9.77;;;;;;;1.11;89.69;97597.28;2096235;28;20025;-81
2021/11/24 08:27:04;;;;;;;20.15;9.60;;;;;;;1.10;89.52;97601.00;2096476;28;20285;-81
2021/11/24 08:28:04;;;;;;;19.73;9.75;;;;;;;1.16;89.70;97602.63;2096184;28;20103;-81
2021/11/24 08:29:04;;;;;;;21.50;10.68;;;;;;;1.17;89.69;97599.72;2087855;28;20052;-80
2021/11/24 08:30:08;;;;;;;21.27;10.43;;;;;;;1.17;89.62;97612.25;2087749;28;20120;-81
2021/11/24 08:31:08;;;;;;;22.33;10.75;;;;;;;1.16;89.55;97598.09;2088401;28;20056;-81
2021/11/24 08:32:08;;;;;;;20.10;9.80;;;;;;;1.07;89.61;97601.50;2087863;28;20028;-81
2021/11/24 08:33:09;;;;;;;20.00;10.30;;;;;;;1.03;90.04;97597.75;2096362;28;20136;-82
2021/11/24 08:34:12;;;;;;;19.40;10.27;;;;;;;0.97;90.28;97599.56;2087764;28;20080;-80
2021/11/24 08:35:12;;;;;;;20.10;10.05;;;;;;;0.99;90.36;97588.66;2096222;28;20021;-80
2021/11/24 08:36:15;;;;;;;20.07;10.67;;;;;;;0.97;90.34;97585.44;2096149;28;20032;-81
2021/11/24 08:37:15;;;;;;;19.45;9.48;;;;;;;0.80;90.71;97596.22;2094356;28;20056;-80
2021/11/24 08:38:16;;;;;;;21.83;10.50;;;;;;;0.87;90.78;97596.81;2096081;28;20021;-81
2021/11/24 08:39:17;;;;;;;18.75;9.68;;;;;;;0.85;90.80;97592.81;2096376;28;20078;-81
2021/11/24 08:40:18;;;;;;;19.90;10.10;;;;;;;0.85;91.26;97590.16;2095826;28;20075;-82
2021/11/24 08:41:18;;;;;;;20.93;10.17;;;;;;;0.85;91.61;97588.28;2088042;28;20029;-83
2021/11/24 08:42:19;;;;;;;22.23;9.85;;;;;;;0.89;91.81;97597.38;2088058;28;20028;-81
2021/11/24 08:43:20;;;;;;;20.00;9.93;;;;;;;0.88;91.97;97590.44;2096250;28;20029;-81
2021/11/24 08:44:20;;;;;;;21.02;10.05;;;;;;;0.97;92.14;97583.59;2096728;28;20056;-80
2021/11/24 08:45:21;;;;;;;18.53;9.90;;;;;;;1.02;92.18;97588.94;2095923;28;20028;-80
2021/11/24 08:46:22;;;;;;;17.95;9.80;;;;;;;1.06;91.70;97584.72;2095991;28;20070;-80
2021/11/24 08:47:22;;;;;;;19.20;10.20;;;;;;;0.90;92.32;97579.53;2096087;28;20067;-81
2021/11/24 08:48:22;;;;;;;19.30;10.32;;;;;;;1.04;92.54;97578.03;2096439;28;20147;-80
2021/11/24 08:49:23;;;;;;;18.50;10.33;;;;;;;1.14;92.37;97573.56;2096141;28;20036;-80
2021/11/24 08:50:23;;;;;;;20.00;10.77;;;;;;;1.24;92.25;97572.03;2096014;28;20024;-81
2021/11/24 08:51:23;;;;;;;20.47;10.47;;;;;;;1.22;92.24;97574.94;2096055;28;20021;-81
2021/11/24 08:52:24;;;;;;;18.23;10.03;;;;;;;1.34;92.27;97574.78;2096009;28;20082;-80
2021/11/24 08:53:25;;;;;;;18.27;9.73;;;;;;;1.40;91.98;97577.22;2087968;28;20028;-81
2021/11/24 08:54:26;;;;;;;21.05;10.10;;;;;;;1.40;91.77;97571.06;2096091;28;20036;-82
2021/11/24 08:55:27;;;;;;;18.75;10.02;;;;;;;1.39;91.46;97570.28;2096574;28;20025;-81
2021/11/24 08:56:28;;;;;;;18.97;10.03;;;;;;;1.49;91.01;97580.19;2087888;28;20084;-80
2021/11/24 08:57:29;;;;;;;19.80;10.13;;;;;;;1.51;91.23;97572.72;2093312;28;20017;-82
2021/11/24 08:58:30;;;;;;;18.87;9.80;;;;;;;1.47;91.37;97569.78;2096202;28;20084;-81
2021/11/24 08:59:30;;;;;;;19.67;10.30;;;;;;;1.42;91.44;97563.63;2093363;28;20051;-82
2021/11/24 09:00:30;;;;;;;19.10;10.27;;;;;;;1.46;91.43;97560.16;2090308;28;20516;-82
2021/11/24 09:01:32;;;;;;;19.57;10.50;;;;;;;1.41;91.27;97562.00;2089024;28;20036;-78
2021/11/24 09:02:32;;;;;;;18.92;10.90;;;;;;;1.37;91.36;97564.38;2090215;28;20158;-81
2021/11/24 09:03:33;;;;;;;18.97;10.33;;;;;;;1.29;91.30;97569.38;2096571;28;20250;-80
2021/11/24 09:04:34;;;;;;;18.38;9.85;;;;;;;1.26;91.56;97575.25;2090066;28;20023;-81
2021/11/24 09:05:34;;;;;;;19.03;10.47;;;;;;;1.25;91.52;97562.97;2083894;28;20021;-81
2021/11/24 09:06:35;;;;;;;21.00;10.57;;;;;;;1.15;91.77;97567.19;2082902;28;20291;-77
2021/11/24 09:07:36;;;;;;;20.15;10.30;;;;;;;1.24;91.84;97567.50;2091320;28;20028;-79
2021/11/24 09:08:36;;;;;;;20.43;10.47;;;;;;;1.20;92.07;97565.63;2082288;28;20017;-79
2021/11/24 09:09:39;;;;;;;21.07;10.70;;;;;;;1.08;92.66;97563.13;2081994;28;20407;-80
2021/11/24 09:10:41;;;;;;;20.52;9.82;;;;;;;1.12;92.71;97557.03;2090052;28;20032;-80
2021/11/24 09:11:41;;;;;;;18.63;10.55;;;;;;;1.23;92.93;97557.09;2097571;28;20028;-80
2021/11/24 09:12:42;;;;;;;22.20;11.30;;;;;;;1.24;92.71;97551.50;2098589;28;20075;-80
2021/11/24 09:13:42;;;;;;;19.17;10.13;;;;;;;1.22;92.92;97555.47;2090963;28;20021;-79
2021/11/24 09:14:43;;;;;;;19.70;10.40;;;;;;;1.12;93.11;97554.38;2090241;28;20032;-79
2021/11/24 09:15:43;;;;;;;18.60;10.50;;;;;;;1.20;93.47;97552.28;2090803;28;20025;-79
2021/11/24 09:16:43;;;;;;;21.58;11.10;;;;;;;1.23;93.18;97551.75;2090099;28;20017;-79
2021/11/24 09:17:44;;;;;;;20.07;10.40;;;;;;;1.21;93.82;97541.34;2098440;28;20028;-79
2021/11/24 09:18:44;;;;;;;21.60;10.83;;;;;;;1.21;93.68;97554.66;2098283;28;20134;-79
2021/11/24 09:19:46;;;;;;;20.27;10.00;;;;;;;1.10;94.05;97553.00;2090707;28;20039;-79
2021/11/24 09:20:48;;;;;;;21.17;10.20;;;;;;;0.98;94.22;97547.88;2090668;28;20107;-80
2021/11/24 09:21:50;;;;;;;19.92;9.93;;;;;;;1.04;94.21;97544.19;2082660;28;20025;-76
2021/11/24 09:22:51;;;;;;;19.25;10.15;;;;;;;0.96;94.39;97543.84;2082845;28;20029;-77
2021/11/24 09:23:53;;;;;;;19.83;10.32;;;;;;;0.90;94.74;97539.56;2091705;28;20033;-80
2021/11/24 09:24:57;;;;;;;20.63;10.15;;;;;;;0.72;95.07;97544.19;2090915;28;20393;-79
2021/11/24 09:26:03;;;;;;;20.17;9.87;;;;;;;0.63;95.91;97547.59;2091024;28;20029;-78
2021/11/24 09:27:11;;;;;;;21.50;11.10;;;;;;;0.61;96.16;97542.53;2090712;28;20658;-77
2021/11/24 09:28:14;;;;;;;20.95;9.90;;;;;;;0.51;96.72;97545.09;2090502;28;20040;-77
2021/11/24 09:29:14;;;;;;;20.38;11.23;;;;;;;0.47;97.03;97546.66;2090636;28;20025;-78
2021/11/24 09:30:17;;;;;;;20.53;10.77;;;;;;;0.56;97.66;97542.50;2090615;28;20021;-77
2021/11/24 09:31:17;;;;;;;22.10;10.32;;;;;;;0.50;97.63;97548.03;2094101;28;20021;-77
2021/11/24 09:32:18;;;;;;;22.27;11.27;;;;;;;0.33;98.01;97542.81;2098431;28;20036;-77
2021/11/24 09:33:18;;;;;;;22.73;11.27;;;;;;;0.37;98.70;97546.56;2094233;28;20052;-78
2021/11/24 09:34:20;;;;;;;21.13;10.13;;;;;;;0.39;99.13;97542.59;2090125;28;20021;-77
2021/11/24 09:35:21;;;;;;;22.27;11.00;;;;;;;0.42;99.71;97543.97;2086199;28;20376;-77
2021/11/24 09:36:21;;;;;;;21.50;10.85;;;;;;;0.45;99.30;97542.63;2098450;28;20132;-77
2021/11/24 09:37:22;;;;;;;21.67;10.97;;;;;;;0.46;99.21;97539.72;2093727;28;20037;-77
2021/11/24 09:38:23;;;;;;;21.63;10.73;;;;;;;0.45;99.27;97542.63;2089979;28;20052;-77
2021/11/24 09:39:24;;;;;;;18.97;10.47;;;;;;;0.49;99.52;97535.75;2094756;28;20025;-77
2021/11/24 09:40:24;;;;;;;20.88;10.02;;;;;;;0.60;99.18;97529.47;2098434;28;20439;-78
2021/11/24 09:41:25;;;;;;;22.13;10.30;;;;;;;0.59;98.91;97522.50;2093942;28;20071;-76
2021/11/24 09:42:28;;;;;;;20.83;10.77;;;;;;;0.64;98.93;97528.69;2090039;28;20033;-77
2021/11/24 09:43:33;;;;;;;20.75;10.43;;;;;;;0.56;98.86;97523.03;2095596;28;20029;-77
2021/11/24 09:44:33;;;;;;;19.85;9.80;;;;;;;0.61;99.24;97526.53;2098274;28;20179;-77
2021/11/24 09:45:35;;;;;;;19.90;10.47;;;;;;;0.62;98.99;97527.34;2092000;28;20040;-77
2021/11/24 09:46:36;;;;;;;19.85;9.73;;;;;;;0.65;98.79;97532.16;2090653;28;20029;-77
2021/11/24 09:47:37;;;;;;;19.70;9.82;;;;;;;0.70;98.86;97517.03;2097200;28;20056;-77
2021/11/24 09:48:39;;;;;;;20.27;10.10;;;;;;;0.67;98.27;97512.19;2097572;28;20027;-76
2021/11/24 09:49:44;;;;;;;19.45;9.95;;;;;;;0.74;98.13;97509.31;2089760;28;20075;-77
2021/11/24 09:50:47;;;;;;;20.55;10.30;;;;;;;0.86;97.89;97511.78;2082064;28;20422;-78
2021/11/24 09:51:52;;;;;;;20.02;10.25;;;;;;;0.92;97.50;97511.59;2098428;28;20111;-79
2021/11/24 09:52:58;;;;;;;21.00;10.32;;;;;;;1.02;97.31;97516.19;2098476;28;20450;-77
2021/11/24 09:54:01;;;;;;;19.55;9.98;;;;;;;0.99;96.52;97512.19;2098720;28;20028;-78
2021/11/24 09:55:02;;;;;;;18.23;9.98;;;;;;;1.07;95.59;97514.34;2096542;28;20509;-78
2021/11/24 09:56:03;;;;;;;19.10;9.93;;;;;;;1.12;95.54;97498.41;2081890;28;20029;-77
2021/11/24 09:57:04;;;;;;;19.67;9.77;;;;;;;1.13;95.03;97502.66;2084059;28;20424;-78
2021/11/24 09:58:05;;;;;;;19.80;10.65;;;;;;;1.12;94.73;97494.94;2098093;28;20020;-77
2021/11/24 09:59:10;;;;;;;18.52;9.98;;;;;;;1.17;94.34;97492.28;2096156;28;20064;-77
2021/11/24 10:00:11;;;;;;;19.17;9.68;;;;;;;1.21;93.95;97496.03;2089530;28;20021;-76
2021/11/24 10:01:12;;;;;;;18.52;9.45;;;;;;;1.18;93.88;97491.22;2094100;28;20115;-77
2021/11/24 10:02:13;;;;;;;20.47;9.73;;;;;;;1.23;93.56;97488.56;2099199;28;20017;-77
2021/11/24 10:03:15;;;;;;;19.08;9.95;;;;;;;1.28;93.33;97491.25;2095292;28;20021;-78
2021/11/24 10:04:16;;;;;;;20.58;10.02;;;;;;;1.34;93.44;97482.25;2090844;28;20040;-76
2021/11/24 10:05:18;;;;;;;18.27;9.10;;;;;;;1.39;93.22;97484.13;2094276;28;20021;-79
2021/11/24 10:06:21;;;;;;;19.58;10.35;;;;;;;1.51;93.16;97482.84;2098720;28;20100;-77
2021/11/24 10:07:22;;;;;;;18.42;9.73;;;;;;;1.48;92.95;97479.91;2086082;28;20075;-78
2021/11/24 10:08:22;;;;;;;19.73;10.17;;;;;;;1.61;93.05;97481.28;2090221;28;20063;-80
2021/11/24 10:09:23;;;;;;;20.03;10.90;;;;;;;1.69;92.79;97478.91;2095326;28;20048;-77
2021/11/24 10:10:24;;;;;;;18.77;9.77;;;;;;;1.76;92.35;97478.66;2098142;28;20025;-79
2021/11/24 10:11:24;;;;;;;19.17;10.00;;;;;;;1.80;91.49;97482.41;2084555;28;20104;-77
2021/11/24 10:12:26;;;;;;;19.37;10.00;;;;;;;1.79;90.76;97470.13;2090029;28;20482;-77
2021/11/24 10:13:28;;;;;;;18.30;9.55;;;;;;;1.85;90.48;97467.19;2081644;28;20095;-79
2021/11/24 10:14:28;;;;;;;19.98;10.40;;;;;;;1.92;90.22;97474.94;2074248;28;20060;-77
2021/11/24 10:15:45;;;;;;;19.50;9.87;;;;;;;1.95;89.67;97464.56;2082152;28;20033;-77
2021/11/24 10:16:46;;;;;;;18.27;9.18;;;;;;;1.89;89.23;97462.16;2090758;28;20033;-78
2021/11/24 10:17:46;;;;;;;18.65;9.27;;;;;;;1.89;88.85;97462.94;2090915;28;20032;-77
2021/11/24 10:18:57;;;;;;;19.17;9.87;;;;;;;2.04;88.66;97456.03;2090625;28;20115;-79
2021/11/24 10:20:08;;;;;;;19.33;9.68;;;;;;;2.11;88.66;97454.72;2088349;28;20482;-76
2021/11/24 10:21:11;;;;;;;18.75;9.68;;;;;;;2.09;88.72;97454.16;2098632;28;20039;-78
2021/11/24 10:22:14;;;;;;;18.17;9.47;;;;;;;2.15;88.76;97449.63;2099726;28;20445;-78
2021/11/24 10:23:24;;;;;;;18.30;9.60;;;;;;;2.14;88.34;97443.50;2090281;28;20273;-77
2021/11/24 10:24:32;;;;;;;17.67;9.48;;;;;;;2.00;88.08;97450.41;2085148;28;20025;-77
2021/11/24 10:25:32;;;;;;;18.48;8.90;;;;;;;1.96;87.77;97450.16;2098151;28;20036;-78
2021/11/24 10:26:37;;;;;;;17.57;8.83;;;;;;;1.99;87.61;97448.81;2098166;28;20431;-76
2021/11/24 10:27:47;;;;;;;17.65;9.55;;;;;;;1.99;87.74;97448.81;2090603;28;20421;-77
2021/11/24 10:29:07;;;;;;;18.88;9.13;;;;;;;1.91;87.91;97446.69;2098651;28;20470;-77
2021/11/24 10:30:10;;;;;;;17.90;9.23;;;;;;;1.95;88.11;97442.41;2098465;28;20155;-78
2021/11/24 10:31:35;;;;;;;18.23;9.38;;;;;;;1.89;88.03;97430.94;2091952;28;20022;-79
2021/11/24 10:32:35;;;;;;;16.73;9.07;;;;;;;1.99;88.30;97432.78;2077109;28;20418;-78
2021/11/24 10:33:36;;;;;;;17.47;9.67;;;;;;;2.11;88.28;97436.03;2081692;28;20124;-77
2021/11/24 10:34:39;;;;;;;18.00;9.10;;;;;;;1.96;88.35;97430.66;2090323;28;20455;-81
2021/11/24 10:35:40;;;;;;;18.73;9.65;;;;;;;2.02;88.01;97428.78;2090002;28;20297;-79
2021/11/24 10:37:12;;;;;;;19.23;9.52;;;;;;;1.98;87.61;97433.06;2081923;28;20021;-79
2021/11/24 10:38:17;;;;;;;18.33;9.63;;;;;;;2.05;87.54;97426.41;2082759;28;20025;-79
2021/11/24 10:39:19;;;;;;;18.10;8.73;;;;;;;2.12;87.13;97424.28;2091934;28;20135;-79
2021/11/24 10:40:21;;;;;;;17.77;9.35;;;;;;;2.05;87.50;97428.28;2100164;28;20359;-78
2021/11/24 10:41:35;;;;;;;18.08;9.32;;;;;;;2.16;87.39;97421.88;2082805;28;20021;-80
2021/11/24 10:42:41;;;;;;;17.38;9.27;;;;;;;2.31;87.37;97417.34;2076538;28;20037;-80
2021/11/24 10:43:45;;;;;;;18.55;9.73;;;;;;;2.29;87.20;97407.97;2096126;28;20020;-76
2021/11/24 10:44:52;;;;;;;17.52;9.25;;;;;;;2.28;86.67;97401.84;2098082;28;20036;-78
2021/11/24 10:45:56;;;;;;;16.60;8.90;;;;;;;2.48;86.54;97409.06;2098565;28;20484;-80
2021/11/24 10:46:58;;;;;;;17.73;9.23;;;;;;;2.57;86.26;97404.75;2098327;28;20470;-78
2021/11/24 10:48:00;;;;;;;17.92;10.02;;;;;;;2.36;86.26;97409.31;2098644;28;20023;-77
2021/11/24 10:49:00;;;;;;;18.58;9.50;;;;;;;2.41;86.41;97395.19;2098281;28;20150;-77
2021/11/24 10:50:04;;;;;;;18.83;9.60;;;;;;;2.44;86.29;97399.16;2097898;28;20066;-77
2021/11/24 10:51:28;;;;;;;17.55;8.95;;;;;;;2.34;86.29;97400.00;2097643;28;20020;-76
2021/11/24 10:52:36;;;;;;;18.57;9.77;;;;;;;2.35;85.72;97394.34;2081759;28;20037;-79
2021/11/24 10:53:36;;;;;;;18.15;9.32;;;;;;;2.29;86.07;97398.09;2089410;28;20266;-77
2021/11/24 10:54:38;;;;;;;18.50;9.82;;;;;;;2.38;85.65;97400.25;2090015;28;20025;-77
2021/11/24 10:55:39;;;;;;;17.67;9.40;;;;;;;2.51;85.58;97397.00;2090710;28;20035;-78
2021/11/24 10:57:06;;;;;;;18.88;9.77;;;;;;;2.64;85.59;97401.81;2089573;28;20293;-78
2021/11/24 10:58:24;;;;;;;18.30;9.10;;;;;;;2.72;85.19;97393.25;2085143;28;20020;-80
2021/11/24 10:59:25;;;;;;;16.47;8.57;;;;;;;2.83;84.77;97388.69;2083570;28;20041;-79
2021/11/24 11:00:46;;;;;;;18.48;9.68;;;;;;;2.99;84.43;97387.53;2080999;28;20306;-77
2021/11/24 11:02:19;;;;;;;16.73;8.85;;;;;;;3.11;83.50;97388.84;2086682;28;20025;-78
2021/11/24 11:03:24;;;;;;;17.60;9.15;;;;;;;3.06;83.30;97377.34;2085392;28;20021;-78
2021/11/24 11:04:24;;;;;;;17.55;9.43;;;;;;;3.19;83.38;97381.34;2088123;28;20021;-77
2021/11/24 11:05:25;;;;;;;21.23;10.00;;;;;;;3.16;83.47;97382.69;2085276;28;20037;-77
2021/11/24 11:06:28;;;;;;;17.57;8.77;;;;;;;3.11;83.64;97375.50;2081503;28;20103;-77
2021/11/24 11:07:31;;;;;;;16.80;9.13;;;;;;;3.02;83.00;97374.44;2093865;28;20021;-78
2021/11/24 11:08:32;;;;;;;18.10;9.55;;;;;;;3.05;83.00;97375.78;2097237;28;20056;-77
2021/11/24 11:09:32;;;;;;;17.33;10.07;;;;;;;3.02;82.80;97368.28;2086610;28;20033;-77
2021/11/24 11:10:41;;;;;;;18.37;9.57;;;;;;;3.08;82.72;97373.34;2090271;28;20469;-77
2021/11/24 11:11:41;;;;;;;17.50;9.10;;;;;;;3.09;82.51;97364.25;2080986;28;20052;-77
2021/11/24 11:12:47;;;;;;;17.77;9.10;;;;;;;3.12;81.95;97358.38;2081109;28;20029;-77
2021/11/24 11:13:47;;;;;;;17.88;8.98;;;;;;;3.12;82.16;97358.38;2081950;28;20102;-77
2021/11/24 11:14:48;;;;;;;18.87;9.70;;;;;;;3.03;82.16;97359.22;2081051;28;20526;-78
2021/11/24 11:15:52;;;;;;;18.17;9.20;;;;;;;2.91;81.23;97356.84;2072578;28;20266;-77
2021/11/24 11:16:55;;;;;;;16.98;9.55;;;;;;;2.89;80.89;97356.31;2084017;28;20379;-77
2021/11/24 11:18:25;;;;;;;17.70;9.43;;;;;;;2.84;80.41;97351.00;2088316;28;20060;-74
2021/11/24 11:19:44;;;;;;;17.43;9.00;;;;;;;2.74;80.11;97351.00;2085516;28;20120;-73
2021/11/24 11:20:48;;;;;;;17.00;8.52;;;;;;;2.73;79.98;97354.75;2079246;28;20628;-72
2021/11/24 11:21:48;;;;;;;17.75;8.43;;;;;;;2.71;80.20;97355.03;2097340;28;20074;-73
2021/11/24 11:23:05;;;;;;;16.90;8.65;;;;;;;2.65;80.03;97348.09;2100614;28;20081;-73
2021/11/24 11:24:07;;;;;;;17.85;8.45;;;;;;;2.68;80.31;97355.56;2083932;28;20435;-74
2021/11/24 11:25:07;;;;;;;21.20;9.32;;;;;;;2.63;80.38;97347.56;2086399;28;20096;-74
2021/11/24 11:26:11;;;;;;;17.27;8.80;;;;;;;2.70;80.31;97352.66;2089213;28;20017;-74
2021/11/24 11:27:11;;;;;;;17.35;8.60;;;;;;;2.75;80.71;97349.94;2080876;28;20032;-73
2021/11/24 11:28:14;;;;;;;18.63;9.57;;;;;;;2.69;80.51;97346.50;2086973;28;20096;-72
2021/11/24 11:29:15;;;;;;;19.58;10.45;;;;;;;2.64;80.51;97348.34;2090243;28;20487;-73
2021/11/24 11:30:16;;;;;;;18.23;9.20;;;;;;;2.67;80.78;97345.16;2088148;28;20036;-74
2021/11/24 11:31:20;;;;;;;17.90;9.23;;;;;;;2.62;80.95;97337.16;2097578;28;20086;-74
2021/11/24 11:32:21;;;;;;;20.25;9.38;;;;;;;2.61;80.53;97338.22;2091316;28;20362;-74
2021/11/24 11:33:25;;;;;;;18.53;9.53;;;;;;;2.60;80.84;97337.44;2098164;28;20020;-75
2021/11/24 11:34:26;;;;;;;19.17;9.15;;;;;;;2.60;80.93;97333.94;2089096;28;20522;-75
2021/11/24 11:35:26;;;;;;;17.58;9.23;;;;;;;2.58;80.80;97330.75;2085231;28;20347;-74
2021/11/24 11:36:27;;;;;;;19.13;10.27;;;;;;;2.55;80.57;97334.78;2078062;28;20094;-74
2021/11/24 11:37:28;;;;;;;16.52;8.98;;;;;;;2.55;80.62;97326.75;2081114;28;20029;-75
2021/11/24 11:38:28;;;;;;;17.83;9.27;;;;;;;2.54;80.47;97329.69;2084829;28;20087;-73
2021/11/24 11:39:28;;;;;;;18.03;9.10;;;;;;;2.53;80.28;97322.75;2089496;28;20029;-73
2021/11/24 11:40:29;;;;;;;16.83;8.18;;;;;;;2.45;80.05;97318.75;2089994;28;20024;-74
2021/11/24 11:41:33;;;;;;;17.97;8.80;;;;;;;2.38;79.77;97317.44;2087784;28;20029;-74
2021/11/24 11:42:34;;;;;;;17.58;9.30;;;;;;;2.45;80.52;97320.63;2095122;28;20028;-74
2021/11/24 11:43:36;;;;;;;16.48;9.13;;;;;;;2.41;80.74;97317.72;2086804;28;20483;-73
2021/11/24 11:44:36;;;;;;;17.20;8.55;;;;;;;2.46;81.03;97324.91;2081589;28;20037;-73
2021/11/24 11:45:39;;;;;;;18.20;8.50;;;;;;;2.45;80.58;97316.09;2080848;28;20021;-74
2021/11/24 11:46:50;;;;;;;17.23;9.02;;;;;;;2.42;80.34;97308.59;2081132;28;20053;-74
2021/11/24 11:47:54;;;;;;;16.55;8.35;;;;;;;2.38;79.99;97307.56;2073891;28;20388;-74
2021/11/24 11:48:57;;;;;;;20.02;8.98;;;;;;;2.27;79.86;97306.75;2074899;28;20030;-74
2021/11/24 11:49:57;;;;;;;17.60;8.60;;;;;;;2.32;80.77;97303.31;2089259;28;20525;-75
2021/11/24 11:51:03;;;;;;;18.57;9.10;;;;;;;2.31;80.37;97299.81;2087837;28;20560;-74
2021/11/24 11:52:09;;;;;;;17.02;8.55;;;;;;;2.25;80.28;97300.09;2081956;28;20032;-74
2021/11/24 11:53:24;;;;;;;16.52;8.80;;;;;;;2.29;80.33;97301.97;2088697;28;20423;-74
2021/11/24 11:54:29;;;;;;;17.30;8.30;;;;;;;2.34;80.49;97285.91;2081736;28;20112;-74
2021/11/24 11:55:29;;;;;;;16.05;7.78;;;;;;;2.31;79.75;97293.69;2085904;28;20296;-75
2021/11/24 11:56:34;;;;;;;15.55;7.72;;;;;;;2.26;79.93;97286.50;2080726;28;20063;-73
2021/11/24 11:57:43;;;;;;;14.37;7.20;;;;;;;2.26;79.23;97286.50;2081022;28;20043;-75
2021/11/24 11:58:49;;;;;;;15.45;7.45;;;;;;;2.21;79.59;97283.81;2081620;28;20271;-73
2021/11/24 12:00:02;;;;;;;16.20;7.60;;;;;;;2.22;79.47;97288.09;2081781;28;20040;-74
2021/11/24 12:01:12;;;;;;;16.73;8.02;;;;;;;2.23;79.59;97286.22;2087636;28;20667;-72
2021/11/24 12:02:12;;;;;;;15.40;7.65;;;;;;;2.17;79.68;97274.75;2080974;28;20033;-75
2021/11/24 12:03:13;;;;;;;16.20;8.13;;;;;;;2.15;79.97;97286.75;2087562;28;20099;-75
2021/11/24 12:04:16;;;;;;;16.53;7.70;;;;;;;2.18;79.85;97283.56;2097472;28;20031;-74
2021/11/24 12:05:18;;;;;;;15.68;8.10;;;;;;;2.17;80.22;97277.44;2088366;28;20269;-75
2021/11/24 12:06:20;;;;;;;15.60;7.95;;;;;;;2.10;80.38;97273.44;2089074;28;20059;-73
2021/11/24 12:07:22;;;;;;;17.90;8.73;;;;;;;2.08;80.67;97278.22;2081001;28;20025;-75
2021/11/24 12:08:22;;;;;;;16.50;8.60;;;;;;;2.08;80.86;97276.38;2079670;28;20155;-74
2021/11/24 12:09:46;;;;;;;16.07;7.63;;;;;;;2.04;80.83;97275.31;2077818;28;20029;-74
2021/11/24 12:10:56;;;;;;;15.23;7.95;;;;;;;2.02;81.38;97273.97;2080928;28;20031;-74
2021/11/24 12:12:09;;;;;;;16.20;7.55;;;;;;;2.05;81.47;97276.91;2087076;28;20025;-75
2021/11/24 12:13:09;;;;;;;17.35;7.85;;;;;;;2.06;82.07;97259.03;2082360;28;20030;-75
2021/11/24 12:14:47;;;;;;;15.93;8.60;;;;;;;2.05;81.63;97254.75;2085058;28;20025;-74
2021/11/24 12:15:48;;;;;;;16.70;7.97;;;;;;;2.02;81.75;97253.41;2089809;28;20475;-74
2021/11/24 12:16:48;;;;;;;17.60;8.33;;;;;;;2.03;81.90;97259.56;2089362;28;20429;-73
2021/11/24 12:17:55;;;;;;;18.77;8.80;;;;;;;2.01;81.67;97254.47;2089710;28;20112;-75
2021/11/24 12:19:20;;;;;;;16.45;8.80;;;;;;;1.97;81.65;97256.09;2083123;28;20262;-75
2021/11/24 12:20:27;;;;;;;16.35;7.65;;;;;;;1.92;81.64;97246.22;2085042;28;20021;-73
2021/11/24 12:21:27;;;;;;;16.60;7.80;;;;;;;1.96;81.51;97249.16;2093242;28;20035;-74
2021/11/24 12:22:46;;;;;;;15.53;7.27;;;;;;;1.96;81.25;97247.28;2084581;28;20783;-73
2021/11/24 12:23:46;;;;;;;14.93;7.57;;;;;;;1.95;81.57;97248.38;2083955;28;20629;-74
2021/11/24 12:24:48;;;;;;;14.60;7.63;;;;;;;1.95;80.81;97250.22;2082491;28;20423;-73
2021/11/24 12:25:48;;;;;;;15.55;8.30;;;;;;;1.95;81.10;97245.69;2081370;28;20104;-74
2021/11/24 12:26:55;;;;;;;15.30;7.93;;;;;;;1.92;81.16;97245.41;2086114;28;20021;-73
2021/11/24 12:28:00;;;;;;;16.27;8.35;;;;;;;1.90;81.42;97244.91;2082235;28;20055;-74
2021/11/24 12:29:01;;;;;;;18.02;7.97;;;;;;;1.91;81.07;97239.31;2086587;28;20022;-75
2021/11/24 12:30:01;;;;;;;14.90;7.73;;;;;;;1.90;81.50;97237.69;2097833;28;20033;-74
2021/11/24 12:31:03;;;;;;;16.03;7.57;;;;;;;1.95;81.73;97231.53;2094331;28;20029;-74
2021/11/24 12:32:04;;;;;;;15.60;7.80;;;;;;;1.94;81.66;97230.75;2091497;28;20398;-74
2021/11/24 12:33:09;;;;;;;17.60;8.07;;;;;;;1.94;81.43;97232.59;2090190;28;20048;-74
2021/11/24 12:34:10;;;;;;;15.43;7.68;;;;;;;1.94;81.81;97236.09;2081170;28;20021;-74
2021/11/24 12:35:17;;;;;;;15.90;8.10;;;;;;;1.92;82.19;97234.75;2080995;28;20170;-73
2021/11/24 12:36:23;;;;;;;17.30;8.30;;;;;;;1.89;82.28;97229.97;2096376;28;20153;-74
2021/11/24 12:37:23;;;;;;;16.27;8.10;;;;;;;1.89;82.27;97238.75;2089175;28;20025;-74
2021/11/24 12:38:31;;;;;;;15.68;7.90;;;;;;;1.90;82.04;97231.56;2082150;28;20014;-74
2021/11/24 12:39:32;;;;;;;16.40;8.10;;;;;;;1.84;81.70;97233.44;2091892;28;20536;-73
2021/11/24 12:40:36;;;;;;;16.37;7.90;;;;;;;1.89;81.97;97229.97;2089396;28;20776;-74
2021/11/24 12:41:39;;;;;;;16.13;8.10;;;;;;;1.86;82.35;97228.63;2089192;28;20033;-74
2021/11/24 12:42:39;;;;;;;17.88;8.20;;;;;;;1.89;82.21;97228.09;2090787;28;20040;-74
2021/11/24 12:43:47;;;;;;;17.60;8.77;;;;;;;1.84;82.36;97222.78;2091134;28;20478;-72
2021/11/24 12:44:50;;;;;;;16.30;8.15;;;;;;;1.83;82.33;97217.69;2090416;28;20025;-74